Latest Coastal Weather Observations for Whyalla

IDS60701

Issued at 5:11 am CST Tuesday 30 August 2016 (issued every 10 minutes, with the page automatically refreshed every 10 minutes)

About coastal observations | Map of coastal stations | Coastal observations for SA | Marine services | Other Formats
Station Details ID: 018120 Name: WHYALLA AERO Lat: -33.05 Lon: 137.52 Height: 9.3 m
Data from the previous 72 hours. | See also: Recent months at Whyalla
Date/Time
CST
Temp
°C
Wind Pressure Rain since
9am
mm
Weather Cloud Vis
km
Sea
Height
m
Swell
Dir  Spd
kts
Gust
kts
hPa Trend Height
m
Period
s
Dir
30/05:04am 14.4 NNW 9 12 1011.7 - 1.6 - Partly cloudy 5 - - - -
30/05:00am 14.4 NNW 10 12 1011.5 - 1.6 - Partly cloudy 8 - - - -
30/04:43am 14.3 NNW 9 13 1011.5 - 1.2 - Partly cloudy 9 - - - -
30/04:30am 14.3 NNW 9 12 1011.4 - 1.2 - Partly cloudy 5 - - - -
30/04:10am 14.4 N 10 13 1011.7 - 0.8 - Cloudy 5 - - - -
30/04:00am 14.4 N 8 11 1011.3 - 0.2 - Cloudy 9 - - - -
30/03:47am 14.5 N 8 10 1011.2 - 0.0 - Partly cloudy 10 - - - -
30/03:30am 14.5 N 9 11 1011.1 - 0.0 - Partly cloudy 10 - - - -
30/03:00am 14.4 NNW 12 16 1011.6 - 0.0 - Cloudy 10 - - - -
30/02:34am 14.3 N 11 15 1012.0 - 0.0 - Partly cloudy 10 - - - -
30/02:30am 14.3 N 11 15 1012.2 - 0.0 - Partly cloudy 8 - - - -
30/02:22am 14.3 N 12 17 1011.9 - 0.0 - Cloudy 5 - - - -
30/02:00am 14.4 N 11 15 1012.7 - 0.0 - Cloudy 10 - - - -
30/01:30am 14.2 N 11 14 1012.6 - 0.0 - Partly cloudy 10 - - - -
30/01:00am 14.6 NNW 15 20 1012.7 - 0.0 - Cloudy 10 - - - -
30/12:30am 14.9 NNW 18 23 1012.7 - 0.0 - Cloudy 10 - - - -
30/12:06am 14.9 NNW 15 25 1012.6 - 0.0 - Cloudy 10 - - - -
30/12:00am 14.8 NNW 13 19 1012.3 - 0.0 - Cloudy 10 - - - -
 
Date/Time
CST
Temp
°C
Wind Pressure Rain since
9am
mm
Weather Cloud Vis
km
Sea
Height
m
Swell
Dir  Spd
kts
Gust
kts
hPa Trend Height
m
Period
s
Dir
29/11:30pm 14.7 NNW 15 23 1012.7 - 0.0 - Cloudy 10 - - - -
29/11:26pm 14.7 N 15 25 1012.6 - 0.0 - Cloudy 10 - - - -
29/11:00pm 14.6 N 12 17 1013.2 - 0.0 - Cloudy 10 - - - -
29/10:52pm 14.6 N 15 25 1013.1 - 0.0 - Cloudy 10 - - - -
29/10:30pm 14.5 N 14 22 1012.6 - 0.0 - Partly cloudy 10 - - - -
29/10:00pm 14.9 NNE 14 18 1012.0 - 0.0 - - 10 - - - -
29/09:30pm 14.9 N 18 25 1011.9 - 0.0 - Partly cloudy 10 - - - -
29/09:00pm 15.0 N 16 21 1012.3 - 0.0 - Mostly cloudy 10 - - - -
29/08:30pm 15.5 NNE 21 33 1011.0 - 0.0 - Partly cloudy 10 - - - -
29/08:05pm 15.2 NNE 23 36 1010.3 - 0.0 - Partly cloudy 10 - - - -
29/08:00pm 15.3 N 23 32 1010.3 - 0.0 - Partly cloudy 10 - - - -
29/07:39pm 14.9 NNE 21 33 1010.0 - 0.0 - Partly cloudy 10 - - - -
29/07:30pm 15.1 NNE 21 29 1010.5 - 0.0 - Partly cloudy 10 - - - -
29/07:08pm 15.2 N 21 31 1011.0 - 0.0 - Cloudy 10 - - - -
29/07:00pm 15.2 N 22 31 1011.4 - 0.0 - Cloudy 10 - - - -
29/06:30pm 15.8 N 22 35 1012.0 - 0.0 - Cloudy 10 - - - -
29/06:00pm 17.1 N 24 35 1011.1 - 0.0 - Cloudy 10 - - - -
29/05:30pm 20.1 N 23 33 1010.5 - 0.0 - - 10 - - - -
29/05:01pm 20.2 N 20 30 1011.0 - 0.0 - - 10 - - - -
29/05:00pm 20.2 N 21 30 1011.0 - 0.0 - - 10 - - - -
29/04:47pm 20.4 N 22 34 1010.9 - 0.0 - Partly cloudy 10 - - - -
29/04:30pm 20.7 N 23 31 1010.8 - 0.0 - Partly cloudy 10 - - - -
29/04:00pm 21.2 N 20 30 1010.1 - 0.0 - Partly cloudy 10 - - - -
29/03:30pm 21.4 N 23 34 1010.4 - 0.0 - Partly cloudy 10 - - - -
29/03:00pm 21.9 N 19 29 1009.4 - 0.0 - Cloudy 10 - - - -
29/02:32pm 21.5 N 17 27 1009.8 - 0.0 - Partly cloudy 10 - - - -
29/02:30pm 21.6 N 17 25 1009.8 - 0.0 - Partly cloudy 10 - - - -
29/02:00pm 21.1 N 19 29 1009.9 - 0.0 - Cloudy 10 - - - -
29/01:30pm 21.2 N 21 29 1010.7 - 0.0 - Partly cloudy 10 - - - -
29/01:15pm 21.9 N 21 32 1010.7 - 0.0 - Partly cloudy 10 - - - -
29/01:00pm 22.4 N 20 27 1010.8 - 0.0 - Partly cloudy 10 - - - -
29/12:30pm 22.5 N 20 29 1010.6 - 0.0 - Partly cloudy 10 - - - -
29/12:05pm 22.7 N 23 34 1011.1 - 0.0 - Cloudy 10 - - - -
29/12:00pm 23.0 N 21 29 1011.2 - 0.0 - Cloudy 10 - - - -
29/11:37am 23.0 N 22 34 1011.5 - 0.0 - Cloudy 10 - - - -
29/11:30am 22.8 N 21 30 1011.5 - 0.0 - Cloudy 10 - - - -
29/11:14am 22.3 N 22 32 1011.6 - 0.0 - Partly cloudy 10 - - - -
29/11:00am 22.5 N 23 31 1011.7 - 0.0 - Partly cloudy 10 - - - -
29/10:31am 22.3 N 19 29 1012.0 - 0.0 - Partly cloudy 10 - - - -
29/10:30am 22.2 N 20 29 1011.9 - 0.0 - Partly cloudy 10 - - - -
29/10:00am 23.0 N 23 35 1012.3 - 0.0 - - 10 - - - -
29/09:49am 23.0 N 22 33 1012.5 - 0.0 - - 10 - - - -
29/09:30am 22.6 N 23 30 1012.7 - 0.0 - - 10 - - - -
29/09:00am 21.9 N 20 31 1013.0 - 0.0 - Partly cloudy 10 - - - -
29/08:30am 20.9 NNE 16 28 1013.0 - 0.0 - Partly cloudy 10 - - - -
29/08:28am 20.7 NNE 15 26 1013.0 - 0.0 - Partly cloudy 10 - - - -
29/08:00am 18.4 NNE 13 18 1013.2 - 0.0 - Partly cloudy 10 - - - -
29/07:30am 16.8 NNE 12 17 1013.0 - 0.0 - Partly cloudy 10 - - - -
29/07:00am 16.7 NE 9 14 1012.6 - 0.0 - Partly cloudy 10 - - - -
29/06:30am 16.3 NNE 7 9 1013.1 - 0.0 - Partly cloudy 10 - - - -
29/06:00am 16.7 NE 7 10 1013.0 - 0.0 - Cloudy 10 - - - -
29/05:30am 16.8 NNE 7 10 1012.7 - 0.0 - Partly cloudy 10 - - - -
29/05:00am 16.9 NE 7 12 1011.7 - 0.0 - - 10 - - - -
29/04:30am 17.2 NNE 8 11 1011.7 - 0.0 - Partly cloudy 10 - - - -
29/04:00am 17.5 NNE 8 11 1011.6 - 0.0 - Partly cloudy 10 - - - -
29/03:30am 17.5 NE 8 12 1011.8 - 0.0 - Partly cloudy 10 - - - -
29/03:00am 17.2 NE 9 12 1011.8 - 0.0 - Cloudy 10 - - - -
29/02:30am 17.0 NE 8 12 1012.5 - 0.0 - Partly cloudy 10 - - - -
29/02:00am 18.1 NE 10 15 1012.7 - 0.0 - Cloudy 10 - - - -
29/01:30am 18.0 NNE 9 14 1012.9 - 0.0 - Cloudy 10 - - - -
29/01:00am 17.6 NE 7 10 1012.8 - 0.0 - Cloudy 10 - - - -
29/12:30am 17.2 NE 7 10 1013.3 - 0.0 - Partly cloudy 10 - - - -
29/12:00am 16.8 NE 6 8 1013.5 - 0.0 - Cloudy 10 - - - -
 
Date/Time
CST
Temp
°C
Wind Pressure Rain since
9am
mm
Weather Cloud Vis
km
Sea
Height
m
Swell
Dir  Spd
kts
Gust
kts
hPa Trend Height
m
Period
s
Dir
28/11:30pm 17.2 NNE 8 11 1013.6 - 0.0 - Cloudy 10 - - - -
28/11:00pm 18.8 NE 9 14 1013.0 - 0.0 - Partly cloudy 10 - - - -
28/10:30pm 18.8 NE 8 11 1013.6 - 0.0 - Cloudy 10 - - - -
28/10:00pm 19.3 NNE 9 12 1013.6 - 0.0 - Cloudy 10 - - - -
28/09:30pm 18.7 NE 6 10 1013.4 - 0.0 - Partly cloudy 10 - - - -
28/09:00pm 19.3 NNE 9 12 1013.8 - 0.0 - Cloudy 10 - - - -
28/08:30pm 20.7 NNE 12 17 1013.3 - 0.0 - - 10 - - - -
28/08:00pm 20.9 NNE 14 19 1012.9 - 0.0 - - 10 - - - -
28/07:30pm 20.7 NNE 12 18 1012.7 - 0.0 - - 10 - - - -
28/07:00pm 20.8 NNE 11 16 1012.6 - 0.0 - - 10 - - - -
28/06:30pm 21.1 NNE 13 19 1012.5 - 0.0 - - 10 - - - -
28/06:00pm 21.1 N 16 23 1012.2 - 0.0 - Cloudy 10 - - - -
28/05:30pm 21.3 N 18 27 1011.3 - 0.0 - - 10 - - - -
28/05:00pm 21.8 N 22 35 1011.2 - 0.0 - - 10 - - - -
28/04:53pm 21.9 N 20 30 1011.2 - 0.0 - - 10 - - - -
28/04:30pm 21.9 N 21 30 1010.9 - 0.0 - - 10 - - - -
28/04:05pm 21.9 N 22 33 1010.8 - 0.0 - - 10 - - - -
28/04:00pm 21.6 N 23 31 1010.8 - 0.0 - - 10 - - - -
28/03:30pm 22.0 N 23 33 1010.9 - 0.0 - - 10 - - - -
28/03:15pm 22.0 N 24 35 1011.2 - 0.0 - - 10 - - - -
28/03:00pm 22.2 N 25 32 1011.4 - 0.0 - Mostly cloudy 10 - - - -
28/02:30pm 21.6 N 22 32 1011.9 - 0.0 - - 10 - - - -
28/02:00pm 22.5 N 21 31 1012.2 - 0.0 - - 10 - - - -
28/01:30pm 21.1 N 18 30 1012.8 - 0.0 - - 10 - - - -
28/01:00pm 20.6 N 19 29 1013.5 - 0.0 - - 10 - - - -
28/12:32pm 20.5 N 19 30 1014.2 - 0.0 - - 10 - - - -
28/12:30pm 20.7 N 20 27 1014.1 - 0.0 - - 10 - - - -
28/12:03pm 20.8 N 20 30 1014.8 - 0.0 - - 10 - - - -
28/12:00pm 20.6 N 21 30 1014.8 - 0.0 - Cloudy 10 - - - -
28/11:49am 20.7 N 21 31 1015.0 - 0.0 - - 10 - - - -
28/11:30am 20.0 N 22 30 1015.5 - 0.0 - - 10 - - - -
28/11:00am 18.4 N 19 26 1015.8 - 0.0 - - 10 - - - -
28/10:30am 17.7 N 17 29 1016.0 - 0.0 - - 10 - - - -
28/10:28am 17.7 N 17 29 1016.1 - 0.0 - - 10 - - - -
28/10:00am 16.9 N 19 27 1016.4 - 0.0 - - 10 - - - -
28/09:30am 15.9 N 21 29 1016.6 - 0.0 - - 10 - - - -
28/09:00am 15.7 N 19 25 1016.8 - 0.0 - Cloudy 10 - - - -
28/08:30am 15.3 N 18 25 1016.7 - 0.0 - - 10 - - - -
28/08:00am 14.8 N 18 26 1016.5 - 0.0 - - 10 - - - -
28/07:30am 14.8 N 16 23 1016.3 - 0.0 - - 10 - - - -
28/07:01am 15.0 N 17 28 1016.0 - 0.0 - - 10 - - - -
28/07:00am 14.9 N 17 25 1016.0 - 0.0 - - 10 - - - -
28/06:30am 14.8 N 16 20 1016.1 - 0.0 - - 10 - - - -
28/06:00am 15.0 N 16 23 1015.9 - 0.0 - Cloudy 10 - - - -
28/05:30am 14.9 N 17 23 1015.8 - 0.0 - - 10 - - - -
28/05:00am 15.3 N 15 21 1015.4 - 0.0 - - 10 - - - -
28/04:30am 14.9 N 15 20 1015.4 - 0.0 - - 10 - - - -
28/04:00am 14.5 N 12 17 1015.6 - 0.0 - - 10 - - - -
28/03:30am 13.9 N 10 15 1015.7 - 0.0 - - 10 - - - -
28/03:00am 14.2 NNE 12 16 1015.7 - 0.0 - Mostly cloudy 10 - - - -
28/02:30am 14.8 NNE 11 17 1016.2 - 0.0 - - 10 - - - -
28/02:00am 14.3 N 9 12 1016.6 - 0.0 - - 10 - - - -
28/01:30am 15.0 N 13 18 1016.9 - 0.0 - - 10 - - - -
28/01:00am 15.0 NNE 9 12 1017.2 - 0.0 - - 10 - - - -
28/12:30am 15.4 NNE 7 10 1017.4 - 0.0 - - 10 - - - -
28/12:00am 15.8 N 7 13 1017.6 - 0.0 - Cloudy 10 - - - -
 
Date/Time
CST
Temp
°C
Wind Pressure Rain since
9am
mm
Weather Cloud Vis
km
Sea
Height
m
Swell
Dir  Spd
kts
Gust
kts
hPa Trend Height
m
Period
s
Dir
27/11:30pm 15.5 NNE 9 11 1017.7 - 0.0 - - 10 - - - -
27/11:00pm 15.8 NNE 11 15 1017.4 - 0.0 - - 10 - - - -
27/10:30pm 15.3 NNE 8 11 1017.4 - 0.0 - - 10 - - - -
27/10:00pm 15.1 NNE 7 8 1017.5 - 0.0 - - 10 - - - -
27/09:30pm 14.9 NNE 6 8 1017.8 - 0.0 - - 10 - - - -
27/09:00pm 15.2 NNE 5 6 1018.1 - 0.0 - Cloudy 10 - - - -
27/08:30pm 15.3 ENE 6 7 1017.8 - 0.0 - - 10 - - - -
27/08:00pm 16.0 N 5 7 1018.0 - 0.0 - - 10 - - - -
27/07:30pm 16.8 N 8 12 1018.0 - 0.0 - - 10 - - - -
27/07:00pm 16.8 N 8 10 1017.8 - 0.0 - - 10 - - - -
27/06:30pm 16.9 N 8 9 1018.0 - 0.0 - - 10 - - - -
27/06:00pm 17.8 N 10 13 1017.6 - 0.0 - Cloudy 10 - - - -
27/05:30pm 18.8 N 13 17 1017.3 - 0.0 - - 10 - - - -
27/05:00pm 19.2 N 14 19 1017.1 - 0.0 - - 10 - - - -
27/04:30pm 19.4 N 14 21 1017.3 - 0.0 - - 10 - - - -
27/04:00pm 19.7 N 13 19 1017.6 - 0.0 - - 10 - - - -
27/03:30pm 20.3 N 13 19 1017.6 - 0.0 - - 10 - - - -
27/03:00pm 19.4 N 13 19 1018.7 - 0.0 - - 10 - - - -
27/02:30pm 20.5 NW 9 15 1018.7 - 0.0 - - 10 - - - -
27/02:00pm 20.3 NNW 13 19 1019.2 - 0.0 - - 10 - - - -
27/01:30pm 20.0 NNW 14 19 1019.5 - 0.0 - - 10 - - - -
27/01:00pm 19.5 N 16 23 1020.0 - 0.0 - - 10 - - - -
27/12:30pm 19.2 N 15 20 1020.5 - 0.0 - - 10 - - - -
27/12:00pm 18.9 N 16 22 1021.3 - 0.0 - Mostly clear 10 - - - -
27/11:30am 18.3 NNW 17 23 1021.6 - 0.0 - - 10 - - - -
27/11:00am 18.0 N 16 19 1022.0 - 0.0 - - 10 - - - -
27/10:30am 17.0 N 15 21 1022.1 - 0.0 - - 10 - - - -
27/10:00am 15.6 N 15 20 1022.4 - 0.0 - - 10 - - - -
27/09:30am 14.7 NNW 13 17 1022.6 - 0.0 - - 10 - - - -
27/09:00am 10.9 NNW 7 9 1022.9 - 0.0 - - 10 - - - -
27/08:30am 7.1 WNW 6 7 1023.1 - 0.0 - - 10 - - - -
27/08:00am 4.4 WNW 5 7 1022.9 - 0.0 - - 10 - - - -
27/07:30am 3.6 NW 5 7 1022.6 - 0.0 - - 10 - - - -
27/07:00am 1.8 NNW 6 7 1022.5 - 0.0 - - 10 - - - -
27/06:30am 1.7 NNW 5 6 1022.3 - 0.0 - - 10 - - - -
27/06:00am 2.0 NW 7 7 1022.3 - 0.0 - Mostly clear 10 - - - -
27/05:30am 1.8 WNW 5 6 1022.0 - 0.0 - - 10 - - - -

Other Formats:

Comma delimited format used in spreadsheet applications
http://www.bom.gov.au/fwo/IDS60701/IDS60701.95664.axf

JavaScript Object Notation format (JSON) in row-major order
http://www.bom.gov.au/fwo/IDS60701/IDS60701.95664.json